sensor_id;sensor_type;location;lat;lon;timestamp;temperature;humidity
62424;DHT22;48463;43.604;3.872;2023-07-20T00:00:20;26.20;74.60
62424;DHT22;48463;43.604;3.872;2023-07-20T00:02:50;26.20;74.90
62424;DHT22;48463;43.604;3.872;2023-07-20T00:05:16;26.20;75.00
62424;DHT22;48463;43.604;3.872;2023-07-20T00:07:44;26.20;75.10
62424;DHT22;48463;43.604;3.872;2023-07-20T00:10:09;26.20;75.20
62424;DHT22;48463;43.604;3.872;2023-07-20T00:12:36;26.10;75.50
62424;DHT22;48463;43.604;3.872;2023-07-20T00:15:02;26.00;75.70
62424;DHT22;48463;43.604;3.872;2023-07-20T00:17:28;26.10;75.80
62424;DHT22;48463;43.604;3.872;2023-07-20T00:19:53;26.10;76.00
62424;DHT22;48463;43.604;3.872;2023-07-20T00:22:19;26.00;76.10
62424;DHT22;48463;43.604;3.872;2023-07-20T00:24:46;26.00;76.30
62424;DHT22;48463;43.604;3.872;2023-07-20T00:27:13;26.00;76.50
62424;DHT22;48463;43.604;3.872;2023-07-20T00:29:39;25.90;76.70
62424;DHT22;48463;43.604;3.872;2023-07-20T00:32:05;25.90;76.90
62424;DHT22;48463;43.604;3.872;2023-07-20T00:34:31;26.00;76.90
62424;DHT22;48463;43.604;3.872;2023-07-20T00:36:56;25.90;77.20
62424;DHT22;48463;43.604;3.872;2023-07-20T00:39:22;25.90;77.30
62424;DHT22;48463;43.604;3.872;2023-07-20T00:41:49;25.70;77.70
62424;DHT22;48463;43.604;3.872;2023-07-20T00:44:14;25.70;78.00
62424;DHT22;48463;43.604;3.872;2023-07-20T00:46:40;25.70;78.20
62424;DHT22;48463;43.604;3.872;2023-07-20T00:49:07;25.70;78.40
62424;DHT22;48463;43.604;3.872;2023-07-20T00:51:33;25.70;79.30
62424;DHT22;48463;43.604;3.872;2023-07-20T00:53:59;25.70;78.80
62424;DHT22;48463;43.604;3.872;2023-07-20T00:56:26;25.70;78.90
62424;DHT22;48463;43.604;3.872;2023-07-20T00:58:52;25.60;79.20
62424;DHT22;48463;43.604;3.872;2023-07-20T01:01:18;25.60;79.50
62424;DHT22;48463;43.604;3.872;2023-07-20T01:03:44;25.50;79.70
62424;DHT22;48463;43.604;3.872;2023-07-20T01:06:18;25.50;79.90
62424;DHT22;48463;43.604;3.872;2023-07-20T01:09:09;25.50;80.20
62424;DHT22;48463;43.604;3.872;2023-07-20T01:11:47;25.50;80.40
62424;DHT22;48463;43.604;3.872;2023-07-20T01:14:15;25.50;80.60
62424;DHT22;48463;43.604;3.872;2023-07-20T01:16:42;25.40;81.00
62424;DHT22;48463;43.604;3.872;2023-07-20T01:19:08;25.50;81.10
62424;DHT22;48463;43.604;3.872;2023-07-20T01:21:42;25.40;81.20
62424;DHT22;48463;43.604;3.872;2023-07-20T01:27:28;25.30;81.80
62424;DHT22;48463;43.604;3.872;2023-07-20T01:30:20;25.30;81.90
62424;DHT22;48463;43.604;3.872;2023-07-20T01:32:54;25.20;82.10
62424;DHT22;48463;43.604;3.872;2023-07-20T01:35:26;25.40;82.30
62424;DHT22;48463;43.604;3.872;2023-07-20T01:37:54;25.20;82.40
62424;DHT22;48463;43.604;3.872;2023-07-20T01:40:21;25.30;83.30
62424;DHT22;48463;43.604;3.872;2023-07-20T01:42:48;25.30;82.70
62424;DHT22;48463;43.604;3.872;2023-07-20T01:45:14;25.20;82.80
62424;DHT22;48463;43.604;3.872;2023-07-20T01:47:40;25.10;83.10
62424;DHT22;48463;43.604;3.872;2023-07-20T01:50:08;25.10;83.50
62424;DHT22;48463;43.604;3.872;2023-07-20T01:52:34;25.00;83.70
62424;DHT22;48463;43.604;3.872;2023-07-20T01:55:00;25.10;83.70
62424;DHT22;48463;43.604;3.872;2023-07-20T01:57:26;25.10;83.80
62424;DHT22;48463;43.604;3.872;2023-07-20T01:59:52;25.00;84.00
62424;DHT22;48463;43.604;3.872;2023-07-20T02:02:18;25.00;84.80
62424;DHT22;48463;43.604;3.872;2023-07-20T02:04:44;24.90;84.40
62424;DHT22;48463;43.604;3.872;2023-07-20T02:07:09;25.00;84.60
62424;DHT22;48463;43.604;3.872;2023-07-20T02:09:35;25.00;84.70
62424;DHT22;48463;43.604;3.872;2023-07-20T02:12:01;25.00;84.80
62424;DHT22;48463;43.604;3.872;2023-07-20T02:14:26;25.00;84.90
62424;DHT22;48463;43.604;3.872;2023-07-20T02:16:52;25.00;85.00
62424;DHT22;48463;43.604;3.872;2023-07-20T02:19:21;25.00;85.00
62424;DHT22;48463;43.604;3.872;2023-07-20T02:21:46;25.10;85.00
62424;DHT22;48463;43.604;3.872;2023-07-20T02:24:15;25.00;85.20
62424;DHT22;48463;43.604;3.872;2023-07-20T02:26:41;25.00;85.20
62424;DHT22;48463;43.604;3.872;2023-07-20T02:29:07;24.90;85.60
62424;DHT22;48463;43.604;3.872;2023-07-20T02:31:33;24.90;85.90
62424;DHT22;48463;43.604;3.872;2023-07-20T02:33:59;24.80;86.10
62424;DHT22;48463;43.604;3.872;2023-07-20T02:36:24;24.70;86.20
62424;DHT22;48463;43.604;3.872;2023-07-20T02:38:50;24.70;86.50
62424;DHT22;48463;43.604;3.872;2023-07-20T02:41:16;24.70;86.50
62424;DHT22;48463;43.604;3.872;2023-07-20T02:43:41;24.80;86.50
62424;DHT22;48463;43.604;3.872;2023-07-20T02:46:07;24.70;86.70
62424;DHT22;48463;43.604;3.872;2023-07-20T02:48:33;24.60;86.90
62424;DHT22;48463;43.604;3.872;2023-07-20T02:50:58;24.60;87.10
62424;DHT22;48463;43.604;3.872;2023-07-20T02:53:24;24.60;87.30
62424;DHT22;48463;43.604;3.872;2023-07-20T02:55:50;24.60;87.40
62424;DHT22;48463;43.604;3.872;2023-07-20T02:58:15;24.50;87.60
62424;DHT22;48463;43.604;3.872;2023-07-20T03:00:42;24.50;87.90
62424;DHT22;48463;43.604;3.872;2023-07-20T03:03:10;24.40;88.00
62424;DHT22;48463;43.604;3.872;2023-07-20T03:05:36;24.50;88.10
62424;DHT22;48463;43.604;3.872;2023-07-20T03:08:05;24.50;88.00
62424;DHT22;48463;43.604;3.872;2023-07-20T03:10:31;24.50;88.10
62424;DHT22;48463;43.604;3.872;2023-07-20T03:12:57;24.50;88.10
62424;DHT22;48463;43.604;3.872;2023-07-20T03:15:23;24.50;88.20
62424;DHT22;48463;43.604;3.872;2023-07-20T03:17:49;24.50;88.40
62424;DHT22;48463;43.604;3.872;2023-07-20T03:20:14;24.40;88.50
62424;DHT22;48463;43.604;3.872;2023-07-20T03:22:40;24.30;88.80
62424;DHT22;48463;43.604;3.872;2023-07-20T03:25:08;24.40;88.90
62424;DHT22;48463;43.604;3.872;2023-07-20T03:27:34;24.40;89.00
62424;DHT22;48463;43.604;3.872;2023-07-20T03:29:59;24.30;89.10
62424;DHT22;48463;43.604;3.872;2023-07-20T03:32:25;24.30;89.00
62424;DHT22;48463;43.604;3.872;2023-07-20T03:34:50;24.30;89.20
62424;DHT22;48463;43.604;3.872;2023-07-20T03:37:16;24.20;89.30
62424;DHT22;48463;43.604;3.872;2023-07-20T03:39:42;24.30;89.50
62424;DHT22;48463;43.604;3.872;2023-07-20T03:42:07;24.30;89.40
62424;DHT22;48463;43.604;3.872;2023-07-20T03:44:33;24.20;89.70
62424;DHT22;48463;43.604;3.872;2023-07-20T03:46:59;24.20;89.80
62424;DHT22;48463;43.604;3.872;2023-07-20T03:49:24;24.20;89.80
62424;DHT22;48463;43.604;3.872;2023-07-20T03:51:50;24.20;89.80
62424;DHT22;48463;43.604;3.872;2023-07-20T03:54:16;24.20;90.00
62424;DHT22;48463;43.604;3.872;2023-07-20T03:56:41;24.00;90.10
62424;DHT22;48463;43.604;3.872;2023-07-20T03:59:07;24.10;90.20
62424;DHT22;48463;43.604;3.872;2023-07-20T04:01:32;23.90;90.40
62424;DHT22;48463;43.604;3.872;2023-07-20T04:04:05;23.90;90.50
62424;DHT22;48463;43.604;3.872;2023-07-20T04:06:31;24.00;90.60
62424;DHT22;48463;43.604;3.872;2023-07-20T04:08:57;23.90;90.60
62424;DHT22;48463;43.604;3.872;2023-07-20T04:11:22;23.90;90.60
62424;DHT22;48463;43.604;3.872;2023-07-20T04:13:48;23.90;90.60
62424;DHT22;48463;43.604;3.872;2023-07-20T04:16:14;23.90;90.60
62424;DHT22;48463;43.604;3.872;2023-07-20T04:18:39;23.80;90.70
62424;DHT22;48463;43.604;3.872;2023-07-20T04:21:07;23.90;90.80
62424;DHT22;48463;43.604;3.872;2023-07-20T04:23:32;23.90;90.80
62424;DHT22;48463;43.604;3.872;2023-07-20T04:25:58;23.90;90.80
62424;DHT22;48463;43.604;3.872;2023-07-20T04:28:24;23.90;90.70
62424;DHT22;48463;43.604;3.872;2023-07-20T04:30:49;24.00;90.70
62424;DHT22;48463;43.604;3.872;2023-07-20T04:33:18;24.00;90.70
62424;DHT22;48463;43.604;3.872;2023-07-20T04:35:54;23.90;90.70
62424;DHT22;48463;43.604;3.872;2023-07-20T04:38:20;23.90;90.70
62424;DHT22;48463;43.604;3.872;2023-07-20T04:40:48;23.90;90.80
62424;DHT22;48463;43.604;3.872;2023-07-20T04:43:17;23.90;90.80
62424;DHT22;48463;43.604;3.872;2023-07-20T04:45:43;24.00;90.80
62424;DHT22;48463;43.604;3.872;2023-07-20T04:48:10;24.00;90.80
62424;DHT22;48463;43.604;3.872;2023-07-20T04:50:41;23.90;90.90
62424;DHT22;48463;43.604;3.872;2023-07-20T04:53:07;24.00;90.90
62424;DHT22;48463;43.604;3.872;2023-07-20T04:55:32;24.00;91.00
62424;DHT22;48463;43.604;3.872;2023-07-20T04:58:02;23.90;91.00
62424;DHT22;48463;43.604;3.872;2023-07-20T05:00:31;24.00;90.90
62424;DHT22;48463;43.604;3.872;2023-07-20T05:02:57;23.90;91.00
62424;DHT22;48463;43.604;3.872;2023-07-20T05:05:23;23.70;91.20
62424;DHT22;48463;43.604;3.872;2023-07-20T05:07:49;23.80;91.20
62424;DHT22;48463;43.604;3.872;2023-07-20T05:10:15;23.80;91.20
62424;DHT22;48463;43.604;3.872;2023-07-20T05:12:41;23.90;91.20
62424;DHT22;48463;43.604;3.872;2023-07-20T05:15:07;23.90;91.20
62424;DHT22;48463;43.604;3.872;2023-07-20T05:17:33;23.90;91.10
62424;DHT22;48463;43.604;3.872;2023-07-20T05:19:58;23.90;91.10
62424;DHT22;48463;43.604;3.872;2023-07-20T05:22:24;24.00;91.10
62424;DHT22;48463;43.604;3.872;2023-07-20T05:24:50;24.00;91.10
62424;DHT22;48463;43.604;3.872;2023-07-20T05:27:16;24.10;90.90
62424;DHT22;48463;43.604;3.872;2023-07-20T05:29:45;24.20;90.90
62424;DHT22;48463;43.604;3.872;2023-07-20T05:32:12;24.10;90.90
62424;DHT22;48463;43.604;3.872;2023-07-20T05:34:38;24.20;90.80
62424;DHT22;48463;43.604;3.872;2023-07-20T05:37:04;24.20;90.80
62424;DHT22;48463;43.604;3.872;2023-07-20T05:39:31;24.20;90.80
62424;DHT22;48463;43.604;3.872;2023-07-20T05:41:57;24.30;90.80
62424;DHT22;48463;43.604;3.872;2023-07-20T05:44:26;24.40;90.80
62424;DHT22;48463;43.604;3.872;2023-07-20T05:46:52;24.50;90.50
62424;DHT22;48463;43.604;3.872;2023-07-20T05:49:18;24.60;90.30
62424;DHT22;48463;43.604;3.872;2023-07-20T05:51:44;24.70;90.20
62424;DHT22;48463;43.604;3.872;2023-07-20T05:54:09;24.80;90.20
62424;DHT22;48463;43.604;3.872;2023-07-20T05:56:35;24.90;90.20
62424;DHT22;48463;43.604;3.872;2023-07-20T05:59:02;24.80;89.90
62424;DHT22;48463;43.604;3.872;2023-07-20T06:01:29;25.00;89.40
62424;DHT22;48463;43.604;3.872;2023-07-20T06:03:54;25.00;89.60
62424;DHT22;48463;43.604;3.872;2023-07-20T06:06:20;25.00;89.50
62424;DHT22;48463;43.604;3.872;2023-07-20T06:08:46;25.00;89.40
62424;DHT22;48463;43.604;3.872;2023-07-20T06:11:12;25.20;88.80
62424;DHT22;48463;43.604;3.872;2023-07-20T06:13:38;25.40;88.50
62424;DHT22;48463;43.604;3.872;2023-07-20T06:16:04;25.60;87.80
62424;DHT22;48463;43.604;3.872;2023-07-20T06:18:30;25.50;87.50
62424;DHT22;48463;43.604;3.872;2023-07-20T06:20:56;25.60;87.40
62424;DHT22;48463;43.604;3.872;2023-07-20T06:23:22;25.70;87.20
62424;DHT22;48463;43.604;3.872;2023-07-20T06:25:48;25.70;86.90
62424;DHT22;48463;43.604;3.872;2023-07-20T06:28:14;25.70;86.90
62424;DHT22;48463;43.604;3.872;2023-07-20T06:30:40;25.90;86.30
62424;DHT22;48463;43.604;3.872;2023-07-20T06:33:06;25.90;86.10
62424;DHT22;48463;43.604;3.872;2023-07-20T06:35:34;25.90;86.10
62424;DHT22;48463;43.604;3.872;2023-07-20T06:38:01;25.90;86.20
62424;DHT22;48463;43.604;3.872;2023-07-20T06:40:30;26.00;85.90
62424;DHT22;48463;43.604;3.872;2023-07-20T06:42:56;26.00;85.80
62424;DHT22;48463;43.604;3.872;2023-07-20T06:45:22;26.20;85.60
62424;DHT22;48463;43.604;3.872;2023-07-20T06:47:48;26.30;85.40
62424;DHT22;48463;43.604;3.872;2023-07-20T06:50:14;26.20;85.10
62424;DHT22;48463;43.604;3.872;2023-07-20T06:52:40;26.20;85.50
62424;DHT22;48463;43.604;3.872;2023-07-20T06:55:07;26.30;85.20
62424;DHT22;48463;43.604;3.872;2023-07-20T06:57:33;26.60;85.00
62424;DHT22;48463;43.604;3.872;2023-07-20T06:59:59;26.70;84.90
62424;DHT22;48463;43.604;3.872;2023-07-20T07:02:25;26.70;84.80
62424;DHT22;48463;43.604;3.872;2023-07-20T07:04:52;26.70;84.80
62424;DHT22;48463;43.604;3.872;2023-07-20T07:07:44;26.70;84.50
62424;DHT22;48463;43.604;3.872;2023-07-20T07:10:09;26.80;84.20
62424;DHT22;48463;43.604;3.872;2023-07-20T07:12:35;26.90;83.90
62424;DHT22;48463;43.604;3.872;2023-07-20T07:15:02;26.90;84.10
62424;DHT22;48463;43.604;3.872;2023-07-20T07:17:38;27.00;83.50
62424;DHT22;48463;43.604;3.872;2023-07-20T07:20:10;27.10;83.40
62424;DHT22;48463;43.604;3.872;2023-07-20T07:22:35;27.20;83.30
62424;DHT22;48463;43.604;3.872;2023-07-20T07:25:01;27.20;83.20
62424;DHT22;48463;43.604;3.872;2023-07-20T07:27:28;27.10;82.80
62424;DHT22;48463;43.604;3.872;2023-07-20T07:29:54;27.20;82.80
62424;DHT22;48463;43.604;3.872;2023-07-20T07:32:24;27.30;82.70
62424;DHT22;48463;43.604;3.872;2023-07-20T07:34:50;27.50;82.80
62424;DHT22;48463;43.604;3.872;2023-07-20T07:37:35;27.60;82.50
62424;DHT22;48463;43.604;3.872;2023-07-20T07:40:06;27.80;82.50
62424;DHT22;48463;43.604;3.872;2023-07-20T07:42:32;27.70;82.20
62424;DHT22;48463;43.604;3.872;2023-07-20T07:45:03;27.70;82.10
62424;DHT22;48463;43.604;3.872;2023-07-20T07:47:29;27.70;82.10
62424;DHT22;48463;43.604;3.872;2023-07-20T07:50:02;27.90;81.90
62424;DHT22;48463;43.604;3.872;2023-07-20T07:52:33;27.90;81.60
62424;DHT22;48463;43.604;3.872;2023-07-20T07:55:04;28.00;82.00
62424;DHT22;48463;43.604;3.872;2023-07-20T07:57:30;28.00;81.40
62424;DHT22;48463;43.604;3.872;2023-07-20T07:59:56;28.10;81.30
62424;DHT22;48463;43.604;3.872;2023-07-20T08:02:24;28.00;81.00
62424;DHT22;48463;43.604;3.872;2023-07-20T08:04:50;28.00;81.00
62424;DHT22;48463;43.604;3.872;2023-07-20T08:07:18;28.10;81.30
62424;DHT22;48463;43.604;3.872;2023-07-20T08:09:44;28.10;81.20
62424;DHT22;48463;43.604;3.872;2023-07-20T08:12:09;28.10;80.80
62424;DHT22;48463;43.604;3.872;2023-07-20T08:14:35;28.20;81.00
62424;DHT22;48463;43.604;3.872;2023-07-20T08:17:02;28.40;80.70
62424;DHT22;48463;43.604;3.872;2023-07-20T08:19:38;28.80;80.60
62424;DHT22;48463;43.604;3.872;2023-07-20T08:22:09;28.80;79.70
62424;DHT22;48463;43.604;3.872;2023-07-20T08:24:39;28.60;79.80
62424;DHT22;48463;43.604;3.872;2023-07-20T08:27:05;28.80;79.70
62424;DHT22;48463;43.604;3.872;2023-07-20T08:29:31;28.80;79.70
62424;DHT22;48463;43.604;3.872;2023-07-20T08:31:57;29.00;79.30
62424;DHT22;48463;43.604;3.872;2023-07-20T08:34:23;29.10;79.40
62424;DHT22;48463;43.604;3.872;2023-07-20T08:36:50;29.10;79.00
62424;DHT22;48463;43.604;3.872;2023-07-20T08:39:16;29.10;78.60
62424;DHT22;48463;43.604;3.872;2023-07-20T08:41:43;29.10;78.40
62424;DHT22;48463;43.604;3.872;2023-07-20T08:44:09;29.10;78.10
62424;DHT22;48463;43.604;3.872;2023-07-20T08:46:38;29.30;77.60
62424;DHT22;48463;43.604;3.872;2023-07-20T08:49:20;29.40;77.50
62424;DHT22;48463;43.604;3.872;2023-07-20T08:51:46;29.00;77.20
62424;DHT22;48463;43.604;3.872;2023-07-20T08:54:14;28.80;77.90
62424;DHT22;48463;43.604;3.872;2023-07-20T08:56:41;29.10;77.80
62424;DHT22;48463;43.604;3.872;2023-07-20T08:59:12;29.20;77.50
62424;DHT22;48463;43.604;3.872;2023-07-20T09:01:47;29.30;77.40
62424;DHT22;48463;43.604;3.872;2023-07-20T09:04:36;29.40;76.90
62424;DHT22;48463;43.604;3.872;2023-07-20T09:07:02;29.50;76.60
62424;DHT22;48463;43.604;3.872;2023-07-20T09:09:29;29.40;75.00
62424;DHT22;48463;43.604;3.872;2023-07-20T09:11:55;29.50;74.20
62424;DHT22;48463;43.604;3.872;2023-07-20T09:14:23;29.60;74.20
62424;DHT22;48463;43.604;3.872;2023-07-20T09:16:55;29.70;74.70
62424;DHT22;48463;43.604;3.872;2023-07-20T09:19:22;29.80;74.20
62424;DHT22;48463;43.604;3.872;2023-07-20T09:21:52;29.90;74.20
62424;DHT22;48463;43.604;3.872;2023-07-20T09:24:19;30.20;73.20
62424;DHT22;48463;43.604;3.872;2023-07-20T09:26:46;30.10;73.30
62424;DHT22;48463;43.604;3.872;2023-07-20T09:29:19;29.90;73.60
62424;DHT22;48463;43.604;3.872;2023-07-20T09:32:04;30.20;73.30
62424;DHT22;48463;43.604;3.872;2023-07-20T09:34:31;30.20;72.60
62424;DHT22;48463;43.604;3.872;2023-07-20T09:37:01;30.20;72.80
62424;DHT22;48463;43.604;3.872;2023-07-20T09:39:27;30.10;72.70
62424;DHT22;48463;43.604;3.872;2023-07-20T09:41:53;30.30;72.20
62424;DHT22;48463;43.604;3.872;2023-07-20T09:44:19;30.40;72.40
62424;DHT22;48463;43.604;3.872;2023-07-20T09:46:50;30.30;71.40
62424;DHT22;48463;43.604;3.872;2023-07-20T09:49:21;30.50;71.90
62424;DHT22;48463;43.604;3.872;2023-07-20T09:51:59;30.40;71.80
62424;DHT22;48463;43.604;3.872;2023-07-20T09:54:30;30.50;71.80
62424;DHT22;48463;43.604;3.872;2023-07-20T09:57:11;30.50;71.80
62424;DHT22;48463;43.604;3.872;2023-07-20T09:59:39;30.40;71.80
62424;DHT22;48463;43.604;3.872;2023-07-20T10:02:11;30.60;71.40
62424;DHT22;48463;43.604;3.872;2023-07-20T10:04:40;30.50;71.30
62424;DHT22;48463;43.604;3.872;2023-07-20T10:07:10;30.60;70.60
62424;DHT22;48463;43.604;3.872;2023-07-20T10:09:39;30.70;70.80
62424;DHT22;48463;43.604;3.872;2023-07-20T10:12:07;30.90;70.70
62424;DHT22;48463;43.604;3.872;2023-07-20T10:14:38;30.80;70.30
62424;DHT22;48463;43.604;3.872;2023-07-20T10:17:06;31.00;70.30
62424;DHT22;48463;43.604;3.872;2023-07-20T10:19:47;31.10;70.10
62424;DHT22;48463;43.604;3.872;2023-07-20T10:22:19;31.10;70.00
62424;DHT22;48463;43.604;3.872;2023-07-20T10:24:46;31.00;69.50
62424;DHT22;48463;43.604;3.872;2023-07-20T10:27:13;31.10;69.80
62424;DHT22;48463;43.604;3.872;2023-07-20T10:29:40;31.30;69.80
62424;DHT22;48463;43.604;3.872;2023-07-20T10:32:08;31.40;70.00
62424;DHT22;48463;43.604;3.872;2023-07-20T10:34:34;31.50;69.60
62424;DHT22;48463;43.604;3.872;2023-07-20T10:37:00;31.60;69.10
62424;DHT22;48463;43.604;3.872;2023-07-20T10:39:27;31.80;68.80
62424;DHT22;48463;43.604;3.872;2023-07-20T10:42:10;31.90;68.60
62424;DHT22;48463;43.604;3.872;2023-07-20T10:44:40;31.70;68.70
62424;DHT22;48463;43.604;3.872;2023-07-20T10:47:10;31.80;68.90
62424;DHT22;48463;43.604;3.872;2023-07-20T10:49:57;31.70;68.80
62424;DHT22;48463;43.604;3.872;2023-07-20T10:52:23;31.90;68.80
62424;DHT22;48463;43.604;3.872;2023-07-20T10:54:50;32.10;68.80
62424;DHT22;48463;43.604;3.872;2023-07-20T10:57:24;32.30;68.30
62424;DHT22;48463;43.604;3.872;2023-07-20T11:00:10;32.30;73.40
62424;DHT22;48463;43.604;3.872;2023-07-20T11:02:47;32.20;75.20
62424;DHT22;48463;43.604;3.872;2023-07-20T11:08:04;32.10;75.10
62424;DHT22;48463;43.604;3.872;2023-07-20T11:10:30;32.30;74.40
62424;DHT22;48463;43.604;3.872;2023-07-20T11:13:16;32.10;73.90
62424;DHT22;48463;43.604;3.872;2023-07-20T11:16:05;32.10;74.30
62424;DHT22;48463;43.604;3.872;2023-07-20T11:18:34;32.10;73.90
62424;DHT22;48463;43.604;3.872;2023-07-20T11:21:07;32.10;74.30
62424;DHT22;48463;43.604;3.872;2023-07-20T11:23:38;32.30;74.20
62424;DHT22;48463;43.604;3.872;2023-07-20T11:26:03;32.30;74.30
62424;DHT22;48463;43.604;3.872;2023-07-20T11:28:34;32.40;74.20
62424;DHT22;48463;43.604;3.872;2023-07-20T11:30:59;32.20;73.90
62424;DHT22;48463;43.604;3.872;2023-07-20T11:33:25;32.30;74.20
62424;DHT22;48463;43.604;3.872;2023-07-20T11:35:51;32.20;73.90
62424;DHT22;48463;43.604;3.872;2023-07-20T11:38:19;32.20;73.80
62424;DHT22;48463;43.604;3.872;2023-07-20T11:40:45;32.40;73.70
62424;DHT22;48463;43.604;3.872;2023-07-20T11:43:12;32.50;73.30
62424;DHT22;48463;43.604;3.872;2023-07-20T11:45:39;32.00;73.20
62424;DHT22;48463;43.604;3.872;2023-07-20T11:48:05;32.10;73.50
62424;DHT22;48463;43.604;3.872;2023-07-20T11:50:39;32.40;73.10
62424;DHT22;48463;43.604;3.872;2023-07-20T11:53:10;32.70;72.60
62424;DHT22;48463;43.604;3.872;2023-07-20T11:55:36;32.70;71.80
62424;DHT22;48463;43.604;3.872;2023-07-20T11:58:21;32.70;72.50
62424;DHT22;48463;43.604;3.872;2023-07-20T12:00:47;32.90;72.50
62424;DHT22;48463;43.604;3.872;2023-07-20T12:03:13;32.40;72.50
62424;DHT22;48463;43.604;3.872;2023-07-20T12:05:51;32.50;72.80
62424;DHT22;48463;43.604;3.872;2023-07-20T12:08:16;32.40;72.60
62424;DHT22;48463;43.604;3.872;2023-07-20T12:10:42;32.50;72.30
62424;DHT22;48463;43.604;3.872;2023-07-20T12:13:10;32.70;72.50
62424;DHT22;48463;43.604;3.872;2023-07-20T12:15:37;32.70;72.50
62424;DHT22;48463;43.604;3.872;2023-07-20T12:18:03;32.70;72.70
62424;DHT22;48463;43.604;3.872;2023-07-20T12:20:42;32.90;72.90
62424;DHT22;48463;43.604;3.872;2023-07-20T12:23:12;32.80;73.30
62424;DHT22;48463;43.604;3.872;2023-07-20T12:25:42;33.10;73.00
62424;DHT22;48463;43.604;3.872;2023-07-20T12:28:14;33.00;72.90
62424;DHT22;48463;43.604;3.872;2023-07-20T12:30:46;33.20;72.80
62424;DHT22;48463;43.604;3.872;2023-07-20T12:33:14;33.20;72.80
62424;DHT22;48463;43.604;3.872;2023-07-20T12:35:41;33.20;73.00
62424;DHT22;48463;43.604;3.872;2023-07-20T12:38:08;33.50;72.20
62424;DHT22;48463;43.604;3.872;2023-07-20T12:40:35;33.30;71.50
62424;DHT22;48463;43.604;3.872;2023-07-20T12:43:01;33.00;71.30
62424;DHT22;48463;43.604;3.872;2023-07-20T12:45:27;33.20;71.30
62424;DHT22;48463;43.604;3.872;2023-07-20T12:47:53;33.20;71.30
62424;DHT22;48463;43.604;3.872;2023-07-20T12:50:27;33.30;71.90
62424;DHT22;48463;43.604;3.872;2023-07-20T12:52:56;33.60;71.60
62424;DHT22;48463;43.604;3.872;2023-07-20T12:55:23;33.70;71.60
62424;DHT22;48463;43.604;3.872;2023-07-20T12:57:51;33.60;71.80
62424;DHT22;48463;43.604;3.872;2023-07-20T13:00:18;33.50;71.90
62424;DHT22;48463;43.604;3.872;2023-07-20T13:02:43;33.40;71.80
62424;DHT22;48463;43.604;3.872;2023-07-20T13:05:09;33.80;71.20
62424;DHT22;48463;43.604;3.872;2023-07-20T13:07:38;33.90;71.90
62424;DHT22;48463;43.604;3.872;2023-07-20T13:10:05;34.00;71.20
62424;DHT22;48463;43.604;3.872;2023-07-20T13:12:33;33.90;70.90
62424;DHT22;48463;43.604;3.872;2023-07-20T13:14:59;33.80;70.40
62424;DHT22;48463;43.604;3.872;2023-07-20T13:17:27;34.20;71.00
62424;DHT22;48463;43.604;3.872;2023-07-20T13:19:54;34.00;71.00
62424;DHT22;48463;43.604;3.872;2023-07-20T13:22:20;33.70;70.70
62424;DHT22;48463;43.604;3.872;2023-07-20T13:24:46;33.70;71.10
62424;DHT22;48463;43.604;3.872;2023-07-20T13:27:18;33.50;70.70
62424;DHT22;48463;43.604;3.872;2023-07-20T13:30:23;34.30;70.40
62424;DHT22;48463;43.604;3.872;2023-07-20T13:32:48;34.40;70.00
62424;DHT22;48463;43.604;3.872;2023-07-20T13:35:14;34.20;70.50
62424;DHT22;48463;43.604;3.872;2023-07-20T13:37:40;34.50;70.20
62424;DHT22;48463;43.604;3.872;2023-07-20T13:40:07;34.60;70.50
62424;DHT22;48463;43.604;3.872;2023-07-20T13:42:34;34.60;70.20
62424;DHT22;48463;43.604;3.872;2023-07-20T13:44:59;34.60;69.80
62424;DHT22;48463;43.604;3.872;2023-07-20T13:47:26;33.90;70.20
62424;DHT22;48463;43.604;3.872;2023-07-20T13:49:52;34.20;69.40
62424;DHT22;48463;43.604;3.872;2023-07-20T13:52:18;34.70;69.20
62424;DHT22;48463;43.604;3.872;2023-07-20T13:54:44;34.30;69.60
62424;DHT22;48463;43.604;3.872;2023-07-20T13:57:09;34.60;69.60
62424;DHT22;48463;43.604;3.872;2023-07-20T13:59:35;35.00;69.40
62424;DHT22;48463;43.604;3.872;2023-07-20T14:02:01;34.60;69.00
62424;DHT22;48463;43.604;3.872;2023-07-20T14:04:41;34.60;69.50
62424;DHT22;48463;43.604;3.872;2023-07-20T14:07:07;34.20;69.90
62424;DHT22;48463;43.604;3.872;2023-07-20T14:09:32;33.90;69.80
62424;DHT22;48463;43.604;3.872;2023-07-20T14:11:58;34.50;69.90
62424;DHT22;48463;43.604;3.872;2023-07-20T14:14:26;34.70;69.10
62424;DHT22;48463;43.604;3.872;2023-07-20T14:17:01;34.10;69.70
62424;DHT22;48463;43.604;3.872;2023-07-20T14:19:27;34.20;70.30
62424;DHT22;48463;43.604;3.872;2023-07-20T14:21:52;34.60;69.70
62424;DHT22;48463;43.604;3.872;2023-07-20T14:24:18;34.80;69.00
62424;DHT22;48463;43.604;3.872;2023-07-20T14:26:44;34.80;69.20
62424;DHT22;48463;43.604;3.872;2023-07-20T14:29:09;34.90;68.60
62424;DHT22;48463;43.604;3.872;2023-07-20T14:31:35;34.60;69.20
62424;DHT22;48463;43.604;3.872;2023-07-20T14:34:01;34.90;69.50
62424;DHT22;48463;43.604;3.872;2023-07-20T14:36:26;34.70;68.90
62424;DHT22;48463;43.604;3.872;2023-07-20T14:38:52;35.20;68.30
62424;DHT22;48463;43.604;3.872;2023-07-20T14:41:18;34.90;68.30
62424;DHT22;48463;43.604;3.872;2023-07-20T14:43:44;34.90;67.50
62424;DHT22;48463;43.604;3.872;2023-07-20T14:46:10;35.00;67.80
62424;DHT22;48463;43.604;3.872;2023-07-20T14:48:35;35.20;68.00
62424;DHT22;48463;43.604;3.872;2023-07-20T14:51:01;35.20;67.40
62424;DHT22;48463;43.604;3.872;2023-07-20T14:53:28;35.30;67.20
62424;DHT22;48463;43.604;3.872;2023-07-20T14:55:59;36.20;67.40
62424;DHT22;48463;43.604;3.872;2023-07-20T14:58:25;38.20;66.60
62424;DHT22;48463;43.604;3.872;2023-07-20T15:00:51;40.90;64.40
62424;DHT22;48463;43.604;3.872;2023-07-20T15:03:16;42.50;62.50
62424;DHT22;48463;43.604;3.872;2023-07-20T15:05:42;43.80;60.60
62424;DHT22;48463;43.604;3.872;2023-07-20T15:08:08;44.40;59.40
62424;DHT22;48463;43.604;3.872;2023-07-20T15:10:34;44.00;58.60
62424;DHT22;48463;43.604;3.872;2023-07-20T15:13:00;44.00;57.40
62424;DHT22;48463;43.604;3.872;2023-07-20T15:15:26;45.10;57.60
62424;DHT22;48463;43.604;3.872;2023-07-20T15:17:51;45.10;57.10
62424;DHT22;48463;43.604;3.872;2023-07-20T15:20:19;44.50;56.90
62424;DHT22;48463;43.604;3.872;2023-07-20T15:22:45;41.40;58.60
62424;DHT22;48463;43.604;3.872;2023-07-20T15:25:11;38.70;59.80
62424;DHT22;48463;43.604;3.872;2023-07-20T15:27:40;36.70;61.10
62424;DHT22;48463;43.604;3.872;2023-07-20T15:30:08;35.80;62.70
62424;DHT22;48463;43.604;3.872;2023-07-20T15:32:35;36.20;62.80
62424;DHT22;48463;43.604;3.872;2023-07-20T15:35:01;36.00;62.50
62424;DHT22;48463;43.604;3.872;2023-07-20T15:37:29;35.50;62.50
62424;DHT22;48463;43.604;3.872;2023-07-20T15:39:59;35.90;62.80